createdAt,value
2023-03-24T00:01:48.437Z,13.30
2023-03-24T00:07:43.587Z,13.30
2023-03-24T00:13:38.562Z,13.30
2023-03-24T00:19:58.069Z,13.30
2023-03-24T00:26:16.611Z,13.40
2023-03-24T00:32:11.088Z,13.20
2023-03-24T00:38:05.984Z,13.10
2023-03-24T00:44:37.974Z,12.40
2023-03-24T00:50:56.535Z,11.90
2023-03-24T00:56:56.033Z,11.70
2023-03-24T01:02:53.966Z,11.60
2023-03-24T01:09:12.780Z,11.50
2023-03-24T01:15:33.548Z,11.30
2023-03-24T01:21:28.103Z,11.20
2023-03-24T01:27:22.728Z,11.10
2023-03-24T01:33:41.253Z,11.10
2023-03-24T01:39:59.680Z,11.10
2023-03-24T01:46:06.267Z,11.10
2023-03-24T01:52:02.124Z,10.90
2023-03-24T01:58:20.667Z,10.90
2023-03-24T02:04:54.213Z,10.80
2023-03-24T02:10:48.680Z,10.80
2023-03-24T02:16:57.186Z,10.80
2023-03-24T02:23:21.676Z,10.80
2023-03-24T02:29:40.102Z,10.90
2023-03-24T02:35:34.551Z,10.80
2023-03-24T02:41:47.404Z,10.80
2023-03-24T02:48:29.387Z,10.80
2023-03-24T02:54:49.932Z,10.80
2023-03-24T03:00:49.281Z,10.80
2023-03-24T03:06:44.931Z,10.60
2023-03-24T03:13:09.596Z,10.70
2023-03-24T03:19:33.317Z,10.70
2023-03-24T03:25:29.155Z,10.60
2023-03-24T03:31:37.013Z,10.60
2023-03-24T03:38:18.626Z,10.70
2023-03-24T03:44:37.068Z,10.80
2023-03-24T03:50:31.580Z,10.70
2023-03-24T03:56:28.009Z,10.60
2023-03-24T04:03:06.975Z,10.70
2023-03-24T04:09:31.593Z,10.70
2023-03-24T04:15:44.265Z,10.50
2023-03-24T04:22:09.112Z,10.50
2023-03-24T04:28:37.553Z,10.50
2023-03-24T04:35:01.305Z,10.50
2023-03-24T04:40:55.872Z,10.50
2023-03-24T04:46:51.282Z,10.50
2023-03-24T04:53:21.803Z,10.50
2023-03-24T04:59:40.678Z,10.60
2023-03-24T05:05:35.099Z,10.60
2023-03-24T05:11:29.595Z,10.70
2023-03-24T05:17:48.122Z,10.70
2023-03-24T05:24:06.935Z,10.80
2023-03-24T05:30:01.361Z,10.80
2023-03-24T05:35:56.219Z,10.80
2023-03-24T05:42:17.213Z,10.90
2023-03-24T05:48:35.824Z,10.90
2023-03-24T05:54:30.342Z,10.90
2023-03-24T06:00:24.832Z,10.80
2023-03-24T06:06:45.795Z,10.90
2023-03-24T06:13:04.179Z,10.90
2023-03-24T06:18:58.533Z,10.90
2023-03-24T06:24:53.869Z,10.80
2023-03-24T06:31:18.715Z,10.80
2023-03-24T06:37:37.235Z,10.80
2023-03-24T06:43:31.755Z,10.80
2023-03-24T06:49:26.450Z,10.80
2023-03-24T06:55:56.946Z,10.80
2023-03-24T07:02:15.900Z,10.90
2023-03-24T07:14:09.511Z,10.90
2023-03-24T07:20:28.079Z,11.00
2023-03-24T07:26:46.964Z,11.20
2023-03-24T07:32:42.451Z,11.40
2023-03-24T07:38:37.034Z,11.30
2023-03-24T07:44:55.569Z,11.40
2023-03-24T07:51:13.969Z,11.50
2023-03-24T07:58:59.184Z,11.50
2023-03-24T08:04:53.850Z,11.50
2023-03-24T08:11:12.436Z,11.60
2023-03-24T08:17:31.055Z,11.70
2023-03-24T08:23:25.684Z,11.80
2023-03-24T08:29:20.194Z,12.10
2023-03-24T08:35:39.649Z,12.20
2023-03-24T08:41:58.224Z,12.10
2023-03-24T08:47:52.990Z,12.00
2023-03-24T08:53:47.598Z,12.10
2023-03-24T09:00:19.128Z,12.20
2023-03-24T09:06:37.508Z,12.10
2023-03-24T09:12:31.896Z,12.30
2023-03-24T09:18:26.404Z,12.20
2023-03-24T09:24:45.566Z,12.30
2023-03-24T09:27:12.420Z,11.10
2023-03-24T09:29:58.230Z,10.40
2023-03-24T09:32:25.369Z,10.10
2023-03-24T09:34:52.231Z,9.90
2023-03-24T09:37:19.226Z,9.80
2023-03-24T09:39:46.060Z,9.80
2023-03-24T09:42:22.666Z,10.10
2023-03-24T09:44:58.085Z,10.00
2023-03-24T09:47:43.035Z,9.80
2023-03-24T09:50:35.443Z,9.90
2023-03-24T09:53:09.651Z,10.10
2023-03-24T09:55:36.542Z,10.20
2023-03-24T09:58:05.131Z,10.40
2023-03-24T10:00:33.206Z,10.40
2023-03-24T10:03:21.624Z,10.50
2023-03-24T10:06:14.106Z,10.30
2023-03-24T10:12:35.753Z,10.10
2023-03-24T10:19:05.512Z,10.10
2023-03-24T10:25:11.755Z,9.90
2023-03-24T10:31:32.586Z,10.20
2023-03-24T10:37:51.306Z,10.40
2023-03-24T10:43:45.801Z,10.50
2023-03-24T10:49:52.379Z,10.80
2023-03-24T10:56:17.189Z,11.10
2023-03-24T11:02:37.925Z,11.10
2023-03-24T11:08:33.935Z,11.00
2023-03-24T11:14:28.552Z,11.20
2023-03-24T11:20:56.718Z,11.50
2023-03-24T11:27:16.624Z,12.10
2023-03-24T11:30:03.288Z,11.50
2023-03-24T11:33:05.306Z,11.50
2023-03-24T11:35:41.650Z,11.90
2023-03-24T11:38:14.082Z,11.80
2023-03-24T11:41:05.908Z,11.80
2023-03-24T11:43:32.766Z,12.10
2023-03-24T11:46:17.942Z,12.50
2023-03-24T11:48:52.499Z,12.50
2023-03-24T11:51:28.604Z,12.40
2023-03-24T11:53:55.824Z,12.30
2023-03-24T11:57:14.392Z,12.20
2023-03-24T11:59:58.023Z,11.80
2023-03-24T12:02:44.325Z,11.40
2023-03-24T12:05:14.215Z,11.10
2023-03-24T12:08:11.975Z,11.20
2023-03-24T12:12:34.150Z,11.50
2023-03-24T12:15:26.625Z,11.90
2023-03-24T12:17:58.216Z,12.30
2023-03-24T12:20:51.347Z,12.60
2023-03-24T12:23:28.695Z,12.90
2023-03-24T12:26:04.455Z,12.80
2023-03-24T12:28:40.721Z,12.70
2023-03-24T12:31:29.008Z,12.50
2023-03-24T12:33:59.327Z,12.40
2023-03-24T12:36:41.625Z,12.20
2023-03-24T12:39:28.401Z,12.30
2023-03-24T12:42:14.304Z,12.50
2023-03-24T12:45:04.199Z,12.60
2023-03-24T12:47:49.753Z,12.80
2023-03-24T12:50:50.662Z,13.00
2023-03-24T12:53:29.560Z,12.90
2023-03-24T12:56:16.677Z,12.90
2023-03-24T12:58:54.053Z,12.90
2023-03-24T13:01:49.191Z,12.70
2023-03-24T13:04:29.453Z,12.50
2023-03-24T13:07:14.829Z,12.30
2023-03-24T13:10:26.386Z,12.20
2023-03-24T13:12:53.223Z,12.20
2023-03-24T13:15:43.140Z,12.10
2023-03-24T13:20:28.387Z,12.10
2023-03-24T13:26:39.513Z,12.30
2023-03-24T13:32:49.498Z,12.20
2023-03-24T13:39:14.150Z,12.40
2023-03-24T13:45:49.458Z,12.50
2023-03-24T13:51:44.929Z,12.60
2023-03-24T13:57:43.283Z,13.20
2023-03-24T14:04:19.916Z,13.00
2023-03-24T14:10:42.502Z,13.20
2023-03-24T14:16:42.028Z,13.70
2023-03-24T14:22:40.668Z,13.50
2023-03-24T14:28:59.220Z,13.40
2023-03-24T14:35:19.332Z,13.50
2023-03-24T14:41:14.736Z,13.60
2023-03-24T14:47:09.300Z,13.10
2023-03-24T14:53:27.914Z,13.00
2023-03-24T14:59:51.611Z,13.20
2023-03-24T15:05:46.041Z,13.30
2023-03-24T15:11:40.916Z,13.50
2023-03-24T15:17:59.460Z,14.00
2023-03-24T15:24:21.128Z,13.90
2023-03-24T15:30:16.157Z,13.70
2023-03-24T15:36:15.129Z,13.70
2023-03-24T15:42:33.645Z,14.00
2023-03-24T15:48:52.437Z,14.10
2023-03-24T15:54:46.893Z,13.80
2023-03-24T16:00:42.476Z,13.90
2023-03-24T16:07:23.956Z,13.70
2023-03-24T16:13:45.904Z,13.90
2023-03-24T16:19:40.593Z,13.60
2023-03-24T16:25:35.183Z,13.50
2023-03-24T16:31:55.523Z,13.30
2023-03-24T16:38:14.184Z,13.20
2023-03-24T16:44:09.043Z,13.20
2023-03-24T16:50:22.233Z,13.30
2023-03-24T16:56:40.898Z,13.20
2023-03-24T17:03:02.295Z,13.10
2023-03-24T17:08:56.763Z,13.10
2023-03-24T17:14:51.203Z,12.80
2023-03-24T17:21:17.480Z,12.70
2023-03-24T17:27:36.015Z,12.60
2023-03-24T17:33:30.416Z,12.50
2023-03-24T17:39:24.889Z,12.50
2023-03-24T17:45:43.450Z,12.50
2023-03-24T17:52:01.873Z,12.40
2023-03-24T17:57:56.416Z,12.20
2023-03-24T18:03:50.929Z,12.00
2023-03-24T18:10:21.455Z,11.90
2023-03-24T18:16:40.287Z,11.90
2023-03-24T18:22:34.751Z,11.80
2023-03-24T18:28:29.390Z,11.70
2023-03-24T18:34:47.951Z,11.70
2023-03-24T18:41:07.182Z,11.70
2023-03-24T18:47:01.639Z,11.60
2023-03-24T18:52:56.872Z,11.50
2023-03-24T18:59:16.009Z,11.40
2023-03-24T19:05:34.417Z,11.40
2023-03-24T19:11:28.828Z,11.30
2023-03-24T19:17:23.846Z,11.30
2023-03-24T19:23:42.310Z,11.30
2023-03-24T19:30:04.949Z,11.20
2023-03-24T19:35:59.361Z,11.10
2023-03-24T19:41:54.563Z,11.00
2023-03-24T19:48:13.123Z,11.00
2023-03-24T19:54:31.523Z,10.90
2023-03-24T20:00:25.974Z,10.80
2023-03-24T20:06:20.776Z,10.80
2023-03-24T20:12:51.481Z,10.80
2023-03-24T20:19:10.039Z,10.80
2023-03-24T20:25:04.964Z,10.70
2023-03-24T20:31:01.033Z,10.70
2023-03-24T20:37:19.590Z,10.70
2023-03-24T20:43:38.066Z,10.70
2023-03-24T20:49:32.574Z,10.60
2023-03-24T20:55:27.082Z,10.50
2023-03-24T21:01:48.621Z,10.50
2023-03-24T21:08:07.087Z,10.50
2023-03-24T21:14:02.726Z,10.50
2023-03-24T21:19:57.965Z,10.40
2023-03-24T21:26:17.390Z,10.40
2023-03-24T21:32:36.220Z,10.40
2023-03-24T21:38:30.844Z,10.30
2023-03-24T21:44:25.310Z,10.30
2023-03-24T21:50:44.545Z,10.30
2023-03-24T21:57:04.073Z,10.30
2023-03-24T22:03:01.588Z,10.20
2023-03-24T22:08:58.524Z,10.20
2023-03-24T22:15:32.428Z,10.30
2023-03-24T22:21:57.129Z,10.20
2023-03-24T22:27:52.948Z,10.30
2023-03-24T22:33:48.100Z,10.20
2023-03-24T22:40:08.774Z,10.20
2023-03-24T22:46:27.287Z,10.20
2023-03-24T22:52:21.668Z,10.20
2023-03-24T22:58:16.237Z,10.10
2023-03-24T23:04:34.737Z,10.10
2023-03-24T23:10:53.088Z,10.10
2023-03-24T23:16:47.465Z,10.00
2023-03-24T23:22:42.053Z,10.10
2023-03-24T23:29:00.562Z,10.00
2023-03-24T23:35:18.999Z,10.00
2023-03-24T23:41:13.952Z,10.00
2023-03-24T23:47:08.402Z,9.90
2023-03-24T23:53:26.947Z,9.80
2023-03-24T23:59:46.018Z,9.70
